Station History


Daily Summary for March 9, 2012 Units:  Both    English   Metric
« Previous Day
Next Day »
Daily Weekly Monthly Yearly Custom
  High: Low: Average:
Temperature: 78.8 °F /  26 °C 37.1 °F /  2.8 °C 56.1 °F /  13.4 °C
Dew Point: 37.5 °F /  3.1 °C 26.6 °F /  -3 °C 32.9 °F /  0.5 °C
Humidity: 83% 15% 49%
Wind Speed: 4.6mph /  7.4km/h - 2.5mph /  4km/h
Wind Gust: 4.6mph /  7.4km/h - -
Wind- - WSW
Pressure: 30.33 in /  1027 hPa 30.09 in /  1018.8 hPa -
Precipitation: 0.00 in /  0 mm    
Historical Graphs
 
 
Tabular Data for March 9, 2012
Time Temperature Dew Point Pressure Wind Wind Speed Wind Gust Humidity Rainfall Rate (Hourly)
00:03 43.5 °F /  6.4 °C 32.5 °F /  0.3 °C 30.31in /  1026.3hPa Calm     65% 0.00in /  0mm
00:08 43.3 °F /  6.3 °C 32.7 °F /  0.4 °C 30.31in /  1026.3hPa Calm     66% 0.00in /  0mm
00:13 43.1 °F /  6.2 °C 32.5 °F /  0.3 °C 30.31in /  1026.3hPa Calm     66% 0.00in /  0mm
00:18 43.1 °F /  6.2 °C 32.5 °F /  0.3 °C 30.31in /  1026.3hPa Calm     66% 0.00in /  0mm
00:23 43.5 °F /  6.4 °C 32.5 °F /  0.3 °C 30.31in /  1026.3hPa Calm     65% 0.00in /  0mm
00:28 43.7 °F /  6.5 °C 32.3 °F /  0.2 °C 30.31in /  1026.3hPa Calm     64% 0.00in /  0mm
00:33 43.7 °F /  6.5 °C 32.7 °F /  0.4 °C 30.31in /  1026.3hPa Calm     65% 0.00in /  0mm
00:38 43.5 °F /  6.4 °C 32.9 °F /  0.5 °C 30.31in /  1026.3hPa Calm     66% 0.00in /  0mm
00:43 43.2 °F /  6.2 °C 33.0 °F /  0.6 °C 30.31in /  1026.3hPa Calm     67% 0.00in /  0mm
00:48 42.9 °F /  6.1 °C 32.7 °F /  0.4 °C 30.31in /  1026.3hPa Calm     67% 0.00in /  0mm
00:53 42.5 °F /  5.8 °C 32.7 °F /  0.4 °C 30.31in /  1026.3hPa Calm     68% 0.00in /  0mm
00:58 42.2 °F /  5.7 °C 32.8 °F /  0.4 °C 30.32in /  1026.6hPa Calm     69% 0.00in /  0mm
01:03 42.1 °F /  5.6 °C 32.7 °F /  0.4 °C 30.32in /  1026.6hPa Calm     69% 0.00in /  0mm
01:08 42.1 °F /  5.6 °C 32.7 °F /  0.4 °C 30.32in /  1026.6hPa Calm     69% 0.00in /  0mm
01:13 41.8 °F /  5.4 °C 32.7 °F /  0.4 °C 30.31in /  1026.3hPa Calm     70% 0.00in /  0mm
01:18 41.4 °F /  5.2 °C 32.3 °F /  0.2 °C 30.32in /  1026.6hPa Calm     70% 0.00in /  0mm
01:19 41.4 °F /  5.2 °C 32.3 °F /  0.2 °C 30.32in /  1026.6hPa Calm     70% 0.00in /  0mm
01:24 41.4 °F /  5.2 °C 32.7 °F /  0.4 °C 30.32in /  1026.6hPa Calm     71% 0.00in /  0mm
01:29 41.4 °F /  5.2 °C 32.7 °F /  0.4 °C 30.32in /  1026.6hPa Calm     71% 0.00in /  0mm
01:34 41.3 °F /  5.2 °C 32.6 °F /  0.3 °C 30.31in /  1026.3hPa Calm     71% 0.00in /  0mm
01:39 41.0 °F /  5 °C 32.7 °F /  0.4 °C 30.32in /  1026.6hPa Calm     72% 0.00in /  0mm
01:44 40.8 °F /  4.9 °C 32.8 °F /  0.4 °C 30.31in /  1026.3hPa Calm     73% 0.00in /  0mm
01:49 40.5 °F /  4.7 °C 32.5 °F /  0.3 °C 30.31in /  1026.3hPa Calm     73% 0.00in /  0mm
01:54 40.2 °F /  4.6 °C 32.6 °F /  0.3 °C 30.31in /  1026.3hPa Calm     74% 0.00in /  0mm
01:59 40.4 °F /  4.7 °C 33.4 °F /  0.8 °C 30.31in /  1026.3hPa Calm     76% 0.00in /  0mm
02:04 41.0 °F /  5 °C 33.7 °F /  0.9 °C 30.31in /  1026.3hPa Calm     75% 0.00in /  0mm
02:09 41.5 °F /  5.3 °C 33.5 °F /  0.8 °C 30.31in /  1026.3hPa Calm     73% 0.00in /  0mm
02:14 41.8 °F /  5.4 °C 33.4 °F /  0.8 °C 30.31in /  1026.3hPa Calm     72% 0.00in /  0mm
02:19 41.9 °F /  5.5 °C 33.5 °F /  0.8 °C 30.31in /  1026.3hPa Calm     72% 0.00in /  0mm
02:24 42.0 °F /  5.6 °C 32.9 °F /  0.5 °C 30.30in /  1026hPa Calm     70% 0.00in /  0mm
02:29 41.9 °F /  5.5 °C 33.2 °F /  0.7 °C 30.31in /  1026.3hPa Calm     71% 0.00in /  0mm
02:34 42.0 °F /  5.6 °C 33.3 °F /  0.7 °C 30.30in /  1026hPa Calm     71% 0.00in /  0mm
02:39 42.0 °F /  5.6 °C 32.9 °F /  0.5 °C 30.31in /  1026.3hPa Calm     70% 0.00in /  0mm
02:44 42.1 °F /  5.6 °C 33.4 °F /  0.8 °C 30.30in /  1026hPa Calm     71% 0.00in /  0mm
02:49 42.0 °F /  5.6 °C 32.9 °F /  0.5 °C 30.30in /  1026hPa Calm     70% 0.00in /  0mm
02:54 41.8 °F /  5.4 °C 33.1 °F /  0.6 °C 30.30in /  1026hPa Calm     71% 0.00in /  0mm
02:59 41.6 °F /  5.3 °C 32.9 °F /  0.5 °C 30.31in /  1026.3hPa Calm     71% 0.00in /  0mm
03:04 41.3 °F /  5.2 °C 33.0 °F /  0.6 °C 30.30in /  1026hPa Calm     72% 0.00in /  0mm
03:09 41.0 °F /  5 °C 32.7 °F /  0.4 °C 30.31in /  1026.3hPa Calm     72% 0.00in /  0mm
03:14 40.7 °F /  4.8 °C 32.7 °F /  0.4 °C 30.31in /  1026.3hPa Calm     73% 0.00in /  0mm
03:19 40.4 °F /  4.7 °C 32.8 °F /  0.4 °C 30.31in /  1026.3hPa Calm     74% 0.00in /  0mm
03:24 40.0 °F /  4.4 °C 32.4 °F /  0.2 °C 30.31in /  1026.3hPa Calm     74% 0.00in /  0mm
03:29 39.7 °F /  4.3 °C 32.8 °F /  0.4 °C 30.30in /  1026hPa Calm     76% 0.00in /  0mm
03:34 39.3 °F /  4.1 °C 32.4 °F /  0.2 °C 30.30in /  1026hPa Calm     76% 0.00in /  0mm
03:39 39.3 °F /  4.1 °C 32.7 °F /  0.4 °C 30.31in /  1026.3hPa Calm     77% 0.00in /  0mm
03:44 39.1 °F /  3.9 °C 32.5 °F /  0.3 °C 30.31in /  1026.3hPa Calm     77% 0.00in /  0mm
03:49 38.9 °F /  3.8 °C 32.6 °F /  0.3 °C 30.30in /  1026hPa Calm     78% 0.00in /  0mm
03:54 38.8 °F /  3.8 °C 32.5 °F /  0.3 °C 30.30in /  1026hPa Calm     78% 0.00in /  0mm
03:59 38.9 °F /  3.8 °C 32.6 °F /  0.3 °C 30.31in /  1026.3hPa Calm     78% 0.00in /  0mm
04:04 38.8 °F /  3.8 °C 32.2 °F /  0.1 °C 30.31in /  1026.3hPa Calm     77% 0.00in /  0mm
04:09 38.6 °F /  3.7 °C 32.3 °F /  0.2 °C 30.31in /  1026.3hPa Calm     78% 0.00in /  0mm
04:14 38.5 °F /  3.6 °C 32.2 °F /  0.1 °C 30.31in /  1026.3hPa Calm     78% 0.00in /  0mm
04:19 38.2 °F /  3.4 °C 32.3 °F /  0.2 °C 30.30in /  1026hPa Calm     79% 0.00in /  0mm
04:24 37.9 °F /  3.3 °C 32.0 °F /  0 °C 30.30in /  1026hPa Calm     79% 0.00in /  0mm
04:29 37.7 °F /  3.2 °C 32.1 °F /  0.1 °C 30.30in /  1026hPa Calm     80% 0.00in /  0mm
04:34 37.5 °F /  3.1 °C 32.2 °F /  0.1 °C 30.30in /  1026hPa Calm     81% 0.00in /  0mm
04:39 37.5 °F /  3.1 °C 32.2 °F /  0.1 °C 30.30in /  1026hPa Calm     81% 0.00in /  0mm
04:44 37.6 °F /  3.1 °C 32.3 °F /  0.2 °C 30.30in /  1026hPa Calm     81% 0.00in /  0mm
04:50 37.9 °F /  3.3 °C 32.6 °F /  0.3 °C 30.30in /  1026hPa Calm     81% 0.00in /  0mm
04:55 38.1 °F /  3.4 °C 32.5 °F /  0.3 °C 30.30in /  1026hPa Calm     80% 0.00in /  0mm
05:00 38.3 °F /  3.5 °C 33.0 °F /  0.6 °C 30.30in /  1026hPa Calm     81% 0.00in /  0mm
05:05 38.3 °F /  3.5 °C 32.4 °F /  0.2 °C 30.30in /  1026hPa Calm     79% 0.00in /  0mm
05:10 38.0 °F /  3.3 °C 32.1 °F /  0.1 °C 30.30in /  1026hPa Calm     79% 0.00in /  0mm
05:15 37.9 °F /  3.3 °C 32.3 °F /  0.2 °C 30.30in /  1026hPa Calm     80% 0.00in /  0mm
05:20 37.6 °F /  3.1 °C 32.3 °F /  0.2 °C 30.31in /  1026.3hPa Calm     81% 0.00in /  0mm
05:25 37.5 °F /  3.1 °C 32.2 °F /  0.1 °C 30.31in /  1026.3hPa Calm     81% 0.00in /  0mm
05:30 37.3 °F /  2.9 °C 32.0 °F /  0 °C 30.30in /  1026hPa Calm     81% 0.00in /  0mm
05:35 37.2 °F /  2.9 °C 32.2 °F /  0.1 °C 30.30in /  1026hPa Calm     82% 0.00in /  0mm
05:40 37.1 °F /  2.8 °C 32.4 °F /  0.2 °C 30.30in /  1026hPa Calm     83% 0.00in /  0mm
05:45 37.1 °F /  2.8 °C 32.1 °F /  0.1 °C 30.30in /  1026hPa Calm     82% 0.00in /  0mm
05:50 37.1 °F /  2.8 °C 32.4 °F /  0.2 °C 30.30in /  1026hPa Calm     83% 0.00in /  0mm
05:55 37.1 °F /  2.8 °C 32.4 °F /  0.2 °C 30.31in /  1026.3hPa Calm     83% 0.00in /  0mm
06:00 37.4 °F /  3 °C 32.4 °F /  0.2 °C 30.31in /  1026.3hPa Calm     82% 0.00in /  0mm
06:05 37.4 °F /  3 °C 32.4 °F /  0.2 °C 30.31in /  1026.3hPa Calm     82% 0.00in /  0mm
06:10 37.2 °F /  2.9 °C 31.9 °F /  -0.1 °C 30.31in /  1026.3hPa Calm     81% 0.00in /  0mm
06:15 37.1 °F /  2.8 °C 32.1 °F /  0.1 °C 30.31in /  1026.3hPa Calm     82% 0.00in /  0mm
06:20 37.3 °F /  2.9 °C 32.6 °F /  0.3 °C 30.31in /  1026.3hPa Calm     83% 0.00in /  0mm
06:25 37.5 °F /  3.1 °C 32.2 °F /  0.1 °C 30.32in /  1026.6hPa Calm     81% 0.00in /  0mm
06:30 37.4 °F /  3 °C 32.4 °F /  0.2 °C 30.32in /  1026.6hPa Calm     82% 0.00in /  0mm
06:35 37.3 °F /  2.9 °C 32.3 °F /  0.2 °C 30.32in /  1026.6hPa Calm     82% 0.00in /  0mm
06:36 37.3 °F /  2.9 °C 32.3 °F /  0.2 °C 30.32in /  1026.6hPa Calm     82% 0.00in /  0mm
06:41 37.7 °F /  3.2 °C 32.7 °F /  0.4 °C 30.32in /  1026.6hPa Calm     82% 0.00in /  0mm
06:46 38.2 °F /  3.4 °C 32.9 °F /  0.5 °C 30.32in /  1026.6hPa Calm     81% 0.00in /  0mm
06:51 38.4 °F /  3.6 °C 33.1 °F /  0.6 °C 30.32in /  1026.6hPa Calm     81% 0.00in /  0mm
06:56 38.5 °F /  3.6 °C 33.5 °F /  0.8 °C 30.32in /  1026.6hPa Calm     82% 0.00in /  0mm
07:01 38.7 °F /  3.7 °C 33.7 °F /  0.9 °C 30.32in /  1026.6hPa Calm     82% 0.00in /  0mm
07:06 39.1 °F /  3.9 °C 34.1 °F /  1.2 °C 30.32in /  1026.6hPa Calm     82% 0.00in /  0mm
07:11 39.5 °F /  4.2 °C 34.2 °F /  1.2 °C 30.32in /  1026.6hPa Calm     81% 0.00in /  0mm
07:16 39.9 °F /  4.4 °C 34.2 °F /  1.2 °C 30.33in /  1027hPa Calm     80% 0.00in /  0mm
07:21 41.1 °F /  5.1 °C 35.1 °F /  1.7 °C 30.33in /  1027hPa Calm     79% 0.00in /  0mm
07:26 42.2 °F /  5.7 °C 35.2 °F /  1.8 °C 30.33in /  1027hPa Calm     76% 0.00in /  0mm
07:31 42.6 °F /  5.9 °C 35.6 °F /  2 °C 30.33in /  1027hPa Calm     76% 0.00in /  0mm
07:36 43.2 °F /  6.2 °C 35.8 °F /  2.1 °C 30.33in /  1027hPa Calm     75% 0.00in /  0mm
07:42 44.1 °F /  6.7 °C 36.0 °F /  2.2 °C 30.33in /  1027hPa Calm     73% 0.00in /  0mm
07:47 45.0 °F /  7.2 °C 35.8 °F /  2.1 °C 30.33in /  1027hPa Calm     70% 0.00in /  0mm
07:52 45.9 °F /  7.7 °C 35.9 °F /  2.2 °C 30.33in /  1027hPa Calm     68% 0.00in /  0mm
07:57 46.9 °F /  8.3 °C 36.1 °F /  2.3 °C 30.33in /  1027hPa Calm     66% 0.00in /  0mm
08:02 47.5 °F /  8.6 °C 36.7 °F /  2.6 °C 30.33in /  1027hPa Calm     66% 0.00in /  0mm
08:07 48.0 °F /  8.9 °C 36.8 °F /  2.7 °C 30.32in /  1026.6hPa Calm     65% 0.00in /  0mm
08:12 48.9 °F /  9.4 °C 36.0 °F /  2.2 °C 30.32in /  1026.6hPa Calm     61% 0.00in /  0mm
08:17 49.6 °F /  9.8 °C 36.3 °F /  2.4 °C 30.32in /  1026.6hPa Calm     60% 0.00in /  0mm
08:22 50.5 °F /  10.3 °C 34.9 °F /  1.6 °C 30.32in /  1026.6hPa Calm     55% 0.00in /  0mm
08:27 51.8 °F /  11 °C 35.7 °F /  2.1 °C 30.32in /  1026.6hPa Calm     54% 0.00in /  0mm
08:32 52.7 °F /  11.5 °C 34.6 °F /  1.4 °C 30.32in /  1026.6hPa Calm     50% 0.00in /  0mm
08:37 53.9 °F /  12.2 °C 33.6 °F /  0.9 °C 30.32in /  1026.6hPa SW 1.1mph /  1.8km/h   46% 0.00in /  0mm
08:42 54.9 °F /  12.7 °C 33.4 °F /  0.8 °C 30.32in /  1026.6hPa SSW 2.3mph /  3.7km/h 2.3mph /  3.7km/h 44% 0.00in /  0mm
08:47 55.4 °F /  13 °C 34.4 °F /  1.3 °C 30.32in /  1026.6hPa Calm     45% 0.00in /  0mm
08:52 55.9 °F /  13.3 °C 34.3 °F /  1.3 °C 30.32in /  1026.6hPa Calm     44% 0.00in /  0mm
08:57 56.5 °F /  13.6 °C 34.3 °F /  1.3 °C 30.32in /  1026.6hPa Calm     43% 0.00in /  0mm
09:02 56.9 °F /  13.8 °C 34.0 °F /  1.1 °C 30.32in /  1026.6hPa Calm     42% 0.00in /  0mm
09:07 57.5 °F /  14.2 °C 32.1 °F /  0.1 °C 30.32in /  1026.6hPa SW 1.1mph /  1.8km/h   38% 0.00in /  0mm
09:12 58.0 °F /  14.4 °C 33.2 °F /  0.7 °C 30.32in /  1026.6hPa Calm   0.1mph /  0.2km/h 39% 0.00in /  0mm
09:17 58.4 °F /  14.7 °C 32.9 °F /  0.5 °C 30.32in /  1026.6hPa SW 2.3mph /  3.7km/h 2.3mph /  3.7km/h 38% 0.00in /  0mm
09:22 58.9 °F /  14.9 °C 32.0 °F /  0 °C 30.32in /  1026.6hPa ESE 1.1mph /  1.8km/h 1.1mph /  1.8km/h 36% 0.00in /  0mm
09:28 59.3 °F /  15.2 °C 32.3 °F /  0.2 °C 30.32in /  1026.6hPa SW 1.1mph /  1.8km/h 1.1mph /  1.8km/h 36% 0.00in /  0mm
09:33 59.9 °F /  15.5 °C 32.2 °F /  0.1 °C 30.32in /  1026.6hPa Calm     35% 0.00in /  0mm
09:38 60.4 °F /  15.8 °C 31.9 °F /  -0.1 °C 30.32in /  1026.6hPa WSW 1.1mph /  1.8km/h 1.1mph /  1.8km/h 34% 0.00in /  0mm
09:43 60.8 °F /  16 °C 32.2 °F /  0.1 °C 30.32in /  1026.6hPa SSW 1.1mph /  1.8km/h 1.1mph /  1.8km/h 34% 0.00in /  0mm
09:48 61.3 °F /  16.3 °C 32.7 °F /  0.4 °C 30.32in /  1026.6hPa SSW 2.3mph /  3.7km/h 2.3mph /  3.7km/h 34% 0.00in /  0mm
09:53 61.7 °F /  16.5 °C 32.3 °F /  0.2 °C 30.32in /  1026.6hPa WSW 1.1mph /  1.8km/h 1.1mph /  1.8km/h 33% 0.00in /  0mm
09:58 61.9 °F /  16.6 °C 33.9 °F /  1.1 °C 30.31in /  1026.3hPa SSW 1.1mph /  1.8km/h 1.1mph /  1.8km/h 35% 0.00in /  0mm
10:03 62.2 °F /  16.8 °C 33.5 °F /  0.8 °C 30.32in /  1026.6hPa SW 1.1mph /  1.8km/h 1.1mph /  1.8km/h 34% 0.00in /  0mm
10:08 62.6 °F /  17 °C 33.8 °F /  1 °C 30.31in /  1026.3hPa Calm     34% 0.00in /  0mm
10:13 63.0 °F /  17.2 °C 32.7 °F /  0.4 °C 30.31in /  1026.3hPa SE 1.1mph /  1.8km/h 1.1mph /  1.8km/h 32% 0.00in /  0mm
10:18 63.5 °F /  17.5 °C 33.9 °F /  1.1 °C 30.31in /  1026.3hPa Calm     33% 0.00in /  0mm
10:23 63.9 °F /  17.7 °C 33.4 °F /  0.8 °C 30.31in /  1026.3hPa West 2.3mph /  3.7km/h 2.3mph /  3.7km/h 32% 0.00in /  0mm
10:28 64.4 °F /  18 °C 33.1 °F /  0.6 °C 30.30in /  1026hPa West 2.3mph /  3.7km/h 2.3mph /  3.7km/h 31% 0.00in /  0mm
10:33 65.0 °F /  18.3 °C 33.6 °F /  0.9 °C 30.30in /  1026hPa SW 1.1mph /  1.8km/h 1.1mph /  1.8km/h 31% 0.00in /  0mm
10:38 65.6 °F /  18.7 °C 34.1 °F /  1.2 °C 30.30in /  1026hPa Calm   0.2mph /  0.3km/h 31% 0.00in /  0mm
10:43 66.3 °F /  19.1 °C 33.9 °F /  1.1 °C 30.30in /  1026hPa SW 1.1mph /  1.8km/h 1.1mph /  1.8km/h 30% 0.00in /  0mm
10:48 66.8 °F /  19.3 °C 33.5 °F /  0.8 °C 30.30in /  1026hPa WNW 1.0mph /  1.6km/h 1.0mph /  1.6km/h 29% 0.00in /  0mm
10:53 67.0 °F /  19.4 °C 32.8 °F /  0.4 °C 30.30in /  1026hPa West 1.1mph /  1.8km/h   28% 0.00in /  0mm
10:58 67.2 °F /  19.6 °C 33.8 °F /  1 °C 30.29in /  1025.6hPa Calm   0.1mph /  0.2km/h 29% 0.00in /  0mm
11:03 67.5 °F /  19.7 °C 34.1 °F /  1.2 °C 30.29in /  1025.6hPa ENE 2.3mph /  3.7km/h 2.3mph /  3.7km/h 29% 0.00in /  0mm
11:08 67.7 °F /  19.8 °C 35.1 °F /  1.7 °C 30.29in /  1025.6hPa NNW 2.3mph /  3.7km/h 2.3mph /  3.7km/h 30% 0.00in /  0mm
11:13 68.3 °F /  20.2 °C 33.0 °F /  0.6 °C 30.28in /  1025.3hPa SSW 2.3mph /  3.7km/h 2.3mph /  3.7km/h 27% 0.00in /  0mm
11:18 68.6 °F /  20.3 °C 33.3 °F /  0.7 °C 30.28in /  1025.3hPa SW 1.1mph /  1.8km/h   27% 0.00in /  0mm
11:23 69.0 °F /  20.6 °C 33.6 °F /  0.9 °C 30.28in /  1025.3hPa ESE 1.1mph /  1.8km/h 1.1mph /  1.8km/h 27% 0.00in /  0mm
11:28 69.2 °F /  20.7 °C 33.8 °F /  1 °C 30.27in /  1024.9hPa NE 1.1mph /  1.8km/h 1.1mph /  1.8km/h 27% 0.00in /  0mm
11:33 69.8 °F /  21 °C 34.3 °F /  1.3 °C 30.27in /  1024.9hPa NW 1.1mph /  1.8km/h   27% 0.00in /  0mm
11:38 70.7 °F /  21.5 °C 34.1 °F /  1.2 °C 30.27in /  1024.9hPa NNW 2.3mph /  3.7km/h 2.3mph /  3.7km/h 26% 0.00in /  0mm
11:43 71.2 °F /  21.8 °C 33.6 °F /  0.9 °C 30.26in /  1024.6hPa SW 2.3mph /  3.7km/h 2.3mph /  3.7km/h 25% 0.00in /  0mm
11:48 71.2 °F /  21.8 °C 31.5 °F /  -0.3 °C 30.26in /  1024.6hPa North 2.3mph /  3.7km/h 2.3mph /  3.7km/h 23% 0.00in /  0mm
11:53 71.5 °F /  21.9 °C 33.8 °F /  1 °C 30.25in /  1024.3hPa NW 2.3mph /  3.7km/h 2.3mph /  3.7km/h 25% 0.00in /  0mm
11:58 71.8 °F /  22.1 °C 34.1 °F /  1.2 °C 30.25in /  1024.3hPa NNW 3.5mph /  5.6km/h 3.5mph /  5.6km/h 25% 0.00in /  0mm
12:03 72.2 °F /  22.3 °C 34.4 °F /  1.3 °C 30.25in /  1024.3hPa North 2.3mph /  3.7km/h 2.3mph /  3.7km/h 25% 0.00in /  0mm
12:08 72.5 °F /  22.5 °C 34.7 °F /  1.5 °C 30.24in /  1023.9hPa NNW 1.1mph /  1.8km/h 1.1mph /  1.8km/h 25% 0.00in /  0mm
12:13 73.2 °F /  22.9 °C 34.2 °F /  1.2 °C 30.24in /  1023.9hPa NNW 3.0mph /  4.8km/h 3.0mph /  4.8km/h 24% 0.00in /  0mm
12:18 73.5 °F /  23.1 °C 32.3 °F /  0.2 °C 30.24in /  1023.9hPa NW 2.3mph /  3.7km/h 2.3mph /  3.7km/h 22% 0.00in /  0mm
12:23 73.6 °F /  23.1 °C 33.5 °F /  0.8 °C 30.23in /  1023.6hPa North 1.1mph /  1.8km/h 1.1mph /  1.8km/h 23% 0.00in /  0mm
12:28 73.9 °F /  23.3 °C 34.8 °F /  1.6 °C 30.23in /  1023.6hPa NNW 3.5mph /  5.6km/h 3.5mph /  5.6km/h 24% 0.00in /  0mm
12:33 74.7 °F /  23.7 °C 37.5 °F /  3.1 °C 30.23in /  1023.6hPa NNW 1.1mph /  1.8km/h 1.1mph /  1.8km/h 26% 0.00in /  0mm
12:38 75.4 °F /  24.1 °C 32.7 °F /  0.4 °C 30.23in /  1023.6hPa NNE 1.1mph /  1.8km/h 1.1mph /  1.8km/h 21% 0.00in /  0mm
12:43 75.0 °F /  23.9 °C 32.4 °F /  0.2 °C 30.22in /  1023.2hPa NNE 1.1mph /  1.8km/h 1.1mph /  1.8km/h 21% 0.00in /  0mm
12:48 75.3 °F /  24.1 °C 36.0 °F /  2.2 °C 30.22in /  1023.2hPa ESE 3.5mph /  5.6km/h 3.5mph /  5.6km/h 24% 0.00in /  0mm
12:53 75.8 °F /  24.3 °C 33.1 °F /  0.6 °C 30.21in /  1022.9hPa WNW 3.0mph /  4.8km/h 3.0mph /  4.8km/h 21% 0.00in /  0mm
12:58 75.9 °F /  24.4 °C 33.1 °F /  0.6 °C 30.21in /  1022.9hPa West 2.3mph /  3.7km/h 2.3mph /  3.7km/h 21% 0.00in /  0mm
13:03 76.4 °F /  24.7 °C 33.6 °F /  0.9 °C 30.20in /  1022.6hPa NW 1.1mph /  1.8km/h   21% 0.00in /  0mm
13:08 76.9 °F /  24.9 °C 36.3 °F /  2.4 °C 30.20in /  1022.6hPa Calm     23% 0.00in /  0mm
13:13 77.4 °F /  25.2 °C 34.4 °F /  1.3 °C 30.20in /  1022.6hPa South 2.3mph /  3.7km/h 2.3mph /  3.7km/h 21% 0.00in /  0mm
13:18 77.2 °F /  25.1 °C 35.4 °F /  1.9 °C 30.20in /  1022.6hPa West 2.3mph /  3.7km/h 2.3mph /  3.7km/h 22% 0.00in /  0mm
13:23 77.6 °F /  25.3 °C 36.8 °F /  2.7 °C 30.19in /  1022.2hPa WNW 3.5mph /  5.6km/h 3.5mph /  5.6km/h 23% 0.00in /  0mm
13:28 77.5 °F /  25.3 °C 35.6 °F /  2 °C 30.19in /  1022.2hPa WSW 3.5mph /  5.6km/h 3.5mph /  5.6km/h 22% 0.00in /  0mm
13:33 77.8 °F /  25.4 °C 35.9 °F /  2.2 °C 30.19in /  1022.2hPa North 3.0mph /  4.8km/h 3.0mph /  4.8km/h 22% 0.00in /  0mm
13:39 77.6 °F /  25.3 °C 36.8 °F /  2.7 °C 30.18in /  1021.9hPa NNE 2.3mph /  3.7km/h 2.3mph /  3.7km/h 23% 0.00in /  0mm
13:44 77.9 °F /  25.5 °C 34.8 °F /  1.6 °C 30.18in /  1021.9hPa WNW 3.5mph /  5.6km/h 3.5mph /  5.6km/h 21% 0.00in /  0mm
13:49 77.5 °F /  25.3 °C 34.5 °F /  1.4 °C 30.18in /  1021.9hPa West 3.5mph /  5.6km/h 3.5mph /  5.6km/h 21% 0.00in /  0mm
13:54 77.6 °F /  25.3 °C 34.6 °F /  1.4 °C 30.18in /  1021.9hPa WNW 3.5mph /  5.6km/h 3.5mph /  5.6km/h 21% 0.00in /  0mm
13:59 77.8 °F /  25.4 °C 35.9 °F /  2.2 °C 30.17in /  1021.6hPa NNE 3.5mph /  5.6km/h 3.5mph /  5.6km/h 22% 0.00in /  0mm
14:04 77.8 °F /  25.4 °C 35.9 °F /  2.2 °C 30.17in /  1021.6hPa North 3.5mph /  5.6km/h 3.5mph /  5.6km/h 22% 0.00in /  0mm
14:09 77.7 °F /  25.4 °C 34.6 °F /  1.4 °C 30.17in /  1021.6hPa NE 3.5mph /  5.6km/h 3.5mph /  5.6km/h 21% 0.00in /  0mm
14:14 77.9 °F /  25.5 °C 31.0 °F /  -0.6 °C 30.17in /  1021.6hPa WNW 4.6mph /  7.4km/h 4.6mph /  7.4km/h 18% 0.00in /  0mm
14:19 78.1 °F /  25.6 °C 31.1 °F /  -0.5 °C 30.17in /  1021.6hPa NNE 3.5mph /  5.6km/h 3.5mph /  5.6km/h 18% 0.00in /  0mm
14:24 78.4 °F /  25.8 °C 30.0 °F /  -1.1 °C 30.17in /  1021.6hPa NNW 2.3mph /  3.7km/h 2.3mph /  3.7km/h 17% 0.00in /  0mm
14:29 78.2 °F /  25.7 °C 29.8 °F /  -1.2 °C 30.17in /  1021.6hPa NNW 3.5mph /  5.6km/h 3.5mph /  5.6km/h 17% 0.00in /  0mm
14:34 78.3 °F /  25.7 °C 28.4 °F /  -2 °C 30.16in /  1021.2hPa NW 4.6mph /  7.4km/h 4.6mph /  7.4km/h 16% 0.00in /  0mm
14:39 78.2 °F /  25.7 °C 28.3 °F /  -2.1 °C 30.16in /  1021.2hPa NW 3.5mph /  5.6km/h 3.5mph /  5.6km/h 16% 0.00in /  0mm
14:44 78.0 °F /  25.6 °C 26.6 °F /  -3 °C 30.16in /  1021.2hPa SSW 2.3mph /  3.7km/h 2.3mph /  3.7km/h 15% 0.00in /  0mm
14:49 78.3 °F /  25.7 °C 26.8 °F /  -2.9 °C 30.16in /  1021.2hPa ESE 2.3mph /  3.7km/h 2.3mph /  3.7km/h 15% 0.00in /  0mm
14:54 77.8 °F /  25.4 °C 28.0 °F /  -2.2 °C 30.15in /  1020.9hPa North 3.5mph /  5.6km/h 3.5mph /  5.6km/h 16% 0.00in /  0mm
14:59 77.9 °F /  25.5 °C 31.0 °F /  -0.6 °C 30.15in /  1020.9hPa NW 3.0mph /  4.8km/h 3.0mph /  4.8km/h 18% 0.00in /  0mm
15:04 78.0 °F /  25.6 °C 29.6 °F /  -1.3 °C 30.15in /  1020.9hPa North 3.5mph /  5.6km/h 3.5mph /  5.6km/h 17% 0.00in /  0mm
15:09 78.3 °F /  25.7 °C 32.6 °F /  0.3 °C 30.15in /  1020.9hPa NW 2.3mph /  3.7km/h 2.3mph /  3.7km/h 19% 0.00in /  0mm
15:14 78.8 °F /  26 °C 28.8 °F /  -1.8 °C 30.15in /  1020.9hPa NNW 3.5mph /  5.6km/h 3.5mph /  5.6km/h 16% 0.00in /  0mm
15:19 78.8 °F /  26 °C 28.8 °F /  -1.8 °C 30.15in /  1020.9hPa NNW 3.5mph /  5.6km/h 3.5mph /  5.6km/h 16% 0.00in /  0mm
15:24 78.6 °F /  25.9 °C 30.1 °F /  -1.1 °C 30.14in /  1020.5hPa North 2.3mph /  3.7km/h 2.3mph /  3.7km/h 17% 0.00in /  0mm
15:29 78.6 °F /  25.9 °C 28.6 °F /  -1.9 °C 30.14in /  1020.5hPa NNW 3.5mph /  5.6km/h 3.5mph /  5.6km/h 16% 0.00in /  0mm
15:34 78.4 °F /  25.8 °C 30.0 °F /  -1.1 °C 30.14in /  1020.5hPa WNW 3.5mph /  5.6km/h 3.5mph /  5.6km/h 17% 0.00in /  0mm
15:39 78.6 °F /  25.9 °C 31.5 °F /  -0.3 °C 30.14in /  1020.5hPa NNW 3.5mph /  5.6km/h 3.5mph /  5.6km/h 18% 0.00in /  0mm
15:44 78.8 °F /  26 °C 28.8 °F /  -1.8 °C 30.13in /  1020.2hPa North 4.0mph /  6.4km/h 4.0mph /  6.4km/h 16% 0.00in /  0mm
15:49 78.4 °F /  25.8 °C 28.5 °F /  -1.9 °C 30.13in /  1020.2hPa NNW 3.5mph /  5.6km/h 3.5mph /  5.6km/h 16% 0.00in /  0mm
15:54 78.2 °F /  25.7 °C 28.3 °F /  -2.1 °C 30.13in /  1020.2hPa NW 3.5mph /  5.6km/h 3.5mph /  5.6km/h 16% 0.00in /  0mm
15:59 78.1 °F /  25.6 °C 31.1 °F /  -0.5 °C 30.13in /  1020.2hPa WNW 2.3mph /  3.7km/h 2.3mph /  3.7km/h 18% 0.00in /  0mm
16:04 78.2 °F /  25.7 °C 33.8 °F /  1 °C 30.12in /  1019.9hPa West 3.5mph /  5.6km/h 3.5mph /  5.6km/h 20% 0.00in /  0mm
16:09 77.8 °F /  25.4 °C 32.2 °F /  0.1 °C 30.12in /  1019.9hPa NNW 3.5mph /  5.6km/h 3.5mph /  5.6km/h 19% 0.00in /  0mm
16:14 78.0 °F /  25.6 °C 33.7 °F /  0.9 °C 30.12in /  1019.9hPa WNW 3.5mph /  5.6km/h 3.5mph /  5.6km/h 20% 0.00in /  0mm
16:19 77.9 °F /  25.5 °C 31.0 °F /  -0.6 °C 30.12in /  1019.9hPa NNW 3.5mph /  5.6km/h 3.5mph /  5.6km/h 18% 0.00in /  0mm
16:24 77.5 °F /  25.3 °C 27.7 °F /  -2.4 °C 30.12in /  1019.9hPa WNW 4.6mph /  7.4km/h 4.6mph /  7.4km/h 16% 0.00in /  0mm
16:29 77.5 °F /  25.3 °C 33.2 °F /  0.7 °C 30.12in /  1019.9hPa West 3.5mph /  5.6km/h 3.5mph /  5.6km/h 20% 0.00in /  0mm
16:34 77.5 °F /  25.3 °C 30.6 °F /  -0.8 °C 30.12in /  1019.9hPa SW 3.5mph /  5.6km/h 3.5mph /  5.6km/h 18% 0.00in /  0mm
16:39 77.2 °F /  25.1 °C 31.7 °F /  -0.2 °C 30.12in /  1019.9hPa NNE 2.0mph /  3.2km/h 2.0mph /  3.2km/h 19% 0.00in /  0mm
16:44 77.0 °F /  25 °C 30.2 °F /  -1 °C 30.12in /  1019.9hPa NNW 4.0mph /  6.4km/h 4.0mph /  6.4km/h 18% 0.00in /  0mm
16:49 76.5 °F /  24.7 °C 29.8 °F /  -1.2 °C 30.12in /  1019.9hPa NNW 2.3mph /  3.7km/h 2.3mph /  3.7km/h 18% 0.00in /  0mm
16:54 76.0 °F /  24.4 °C 28.0 °F /  -2.2 °C 30.12in /  1019.9hPa NNW 3.5mph /  5.6km/h 3.5mph /  5.6km/h 17% 0.00in /  0mm
16:59 75.4 °F /  24.1 °C 27.5 °F /  -2.5 °C 30.12in /  1019.9hPa NNE 4.6mph /  7.4km/h 4.6mph /  7.4km/h 17% 0.00in /  0mm
17:04 74.8 °F /  23.8 °C 28.4 °F /  -2 °C 30.11in /  1019.5hPa WNW 2.3mph /  3.7km/h 2.3mph /  3.7km/h 18% 0.00in /  0mm
17:09 74.3 °F /  23.5 °C 28.0 °F /  -2.2 °C 30.11in /  1019.5hPa WNW 3.5mph /  5.6km/h 3.5mph /  5.6km/h 18% 0.00in /  0mm
17:14 73.9 °F /  23.3 °C 27.7 °F /  -2.4 °C 30.11in /  1019.5hPa WNW 2.3mph /  3.7km/h 2.3mph /  3.7km/h 18% 0.00in /  0mm
17:19 73.5 °F /  23.1 °C 27.4 °F /  -2.6 °C 30.11in /  1019.5hPa NNW 3.5mph /  5.6km/h 3.5mph /  5.6km/h 18% 0.00in /  0mm
17:24 73.1 °F /  22.8 °C 27.0 °F /  -2.8 °C 30.11in /  1019.5hPa NNW 2.3mph /  3.7km/h 2.3mph /  3.7km/h 18% 0.00in /  0mm
17:29 72.8 °F /  22.7 °C 26.8 °F /  -2.9 °C 30.11in /  1019.5hPa NNW 2.3mph /  3.7km/h 2.3mph /  3.7km/h 18% 0.00in /  0mm
17:34 72.4 °F /  22.4 °C 27.8 °F /  -2.3 °C 30.11in /  1019.5hPa WNW 2.3mph /  3.7km/h 2.3mph /  3.7km/h 19% 0.00in /  0mm
17:39 72.0 °F /  22.2 °C 27.5 °F /  -2.5 °C 30.10in /  1019.2hPa NW 2.0mph /  3.2km/h 2.0mph /  3.2km/h 19% 0.00in /  0mm
17:44 71.4 °F /  21.9 °C 28.2 °F /  -2.1 °C 30.11in /  1019.5hPa North 1.1mph /  1.8km/h 1.1mph /  1.8km/h 20% 0.00in /  0mm
17:49 70.8 °F /  21.6 °C 28.9 °F /  -1.7 °C 30.11in /  1019.5hPa North 1.1mph /  1.8km/h 1.1mph /  1.8km/h 21% 0.00in /  0mm
17:54 70.4 °F /  21.3 °C 28.6 °F /  -1.9 °C 30.11in /  1019.5hPa Calm   0.3mph /  0.5km/h 21% 0.00in /  0mm
17:59 70.1 °F /  21.2 °C 29.5 °F /  -1.4 °C 30.11in /  1019.5hPa Calm   0.1mph /  0.2km/h 22% 0.00in /  0mm
18:04 69.6 °F /  20.9 °C 29.0 °F /  -1.7 °C 30.10in /  1019.2hPa Calm     22% 0.00in /  0mm
18:09 69.1 °F /  20.6 °C 29.7 °F /  -1.3 °C 30.10in /  1019.2hPa Calm     23% 0.00in /  0mm
18:14 68.5 °F /  20.3 °C 29.2 °F /  -1.6 °C 30.10in /  1019.2hPa Calm     23% 0.00in /  0mm
18:19 67.9 °F /  19.9 °C 28.7 °F /  -1.8 °C 30.10in /  1019.2hPa Calm     23% 0.00in /  0mm
18:24 67.2 °F /  19.6 °C 29.2 °F /  -1.6 °C 30.10in /  1019.2hPa Calm     24% 0.00in /  0mm
18:29 66.6 °F /  19.2 °C 29.6 °F /  -1.3 °C 30.10in /  1019.2hPa Calm     25% 0.00in /  0mm
18:34 66.0 °F /  18.9 °C 30.1 °F /  -1.1 °C 30.10in /  1019.2hPa Calm     26% 0.00in /  0mm
18:39 65.2 °F /  18.4 °C 29.4 °F /  -1.4 °C 30.10in /  1019.2hPa Calm     26% 0.00in /  0mm
18:44 64.5 °F /  18.1 °C 29.7 °F /  -1.3 °C 30.10in /  1019.2hPa Calm     27% 0.00in /  0mm
18:49 63.7 °F /  17.6 °C 30.0 °F /  -1.1 °C 30.10in /  1019.2hPa Calm     28% 0.00in /  0mm
18:54 63.1 °F /  17.3 °C 30.3 °F /  -0.9 °C 30.10in /  1019.2hPa Calm     29% 0.00in /  0mm
18:59 62.5 °F /  16.9 °C 30.6 °F /  -0.8 °C 30.10in /  1019.2hPa Calm     30% 0.00in /  0mm
19:04 61.8 °F /  16.6 °C 31.6 °F /  -0.2 °C 30.10in /  1019.2hPa Calm     32% 0.00in /  0mm
19:09 61.0 °F /  16.1 °C 30.9 °F /  -0.6 °C 30.10in /  1019.2hPa Calm     32% 0.00in /  0mm
19:14 60.1 °F /  15.6 °C 30.9 °F /  -0.6 °C 30.10in /  1019.2hPa Calm     33% 0.00in /  0mm
19:19 59.3 °F /  15.2 °C 30.9 °F /  -0.6 °C 30.10in /  1019.2hPa Calm     34% 0.00in /  0mm
19:24 58.6 °F /  14.8 °C 31.7 °F /  -0.2 °C 30.10in /  1019.2hPa Calm     36% 0.00in /  0mm
19:29 58.0 °F /  14.4 °C 32.5 °F /  0.3 °C 30.09in /  1018.8hPa Calm     38% 0.00in /  0mm
19:34 57.7 °F /  14.3 °C 32.9 °F /  0.5 °C 30.09in /  1018.8hPa Calm     39% 0.00in /  0mm
19:40 57.4 °F /  14.1 °C 32.6 °F /  0.3 °C 30.09in /  1018.8hPa Calm     39% 0.00in /  0mm
19:45 57.1 °F /  13.9 °C 33.6 °F /  0.9 °C 30.09in /  1018.8hPa Calm     41% 0.00in /  0mm
19:50 56.6 °F /  13.7 °C 33.2 °F /  0.7 °C 30.09in /  1018.8hPa Calm     41% 0.00in /  0mm
19:55 56.1 °F /  13.4 °C 33.3 °F /  0.7 °C 30.09in /  1018.8hPa Calm     42% 0.00in /  0mm
20:00 55.6 °F /  13.1 °C 33.4 °F /  0.8 °C 30.09in /  1018.8hPa Calm     43% 0.00in /  0mm
20:05 55.1 °F /  12.8 °C 34.1 °F /  1.2 °C 30.09in /  1018.8hPa Calm     45% 0.00in /  0mm
20:10 54.9 °F /  12.7 °C 33.4 °F /  0.8 °C 30.09in /  1018.8hPa Calm     44% 0.00in /  0mm
20:15 54.6 °F /  12.6 °C 34.8 °F /  1.6 °C 30.10in /  1019.2hPa Calm     47% 0.00in /  0mm
20:20 54.2 °F /  12.3 °C 34.9 °F /  1.6 °C 30.09in /  1018.8hPa Calm     48% 0.00in /  0mm
20:25 53.7 °F /  12.1 °C 34.5 °F /  1.4 °C 30.09in /  1018.8hPa Calm     48% 0.00in /  0mm
20:30 53.3 °F /  11.8 °C 34.1 °F /  1.2 °C 30.09in /  1018.8hPa Calm     48% 0.00in /  0mm
20:35 53.0 °F /  11.7 °C 34.8 °F /  1.6 °C 30.09in /  1018.8hPa Calm     50% 0.00in /  0mm
20:40 52.6 °F /  11.4 °C 35.0 °F /  1.7 °C 30.09in /  1018.8hPa Calm     51% 0.00in /  0mm
20:45 52.3 °F /  11.3 °C 35.2 °F /  1.8 °C 30.09in /  1018.8hPa Calm     52% 0.00in /  0mm
20:50 52.0 °F /  11.1 °C 35.4 °F /  1.9 °C 30.10in /  1019.2hPa Calm     53% 0.00in /  0mm
20:55 51.6 °F /  10.9 °C 34.5 °F /  1.4 °C 30.10in /  1019.2hPa Calm     52% 0.00in /  0mm
21:00 51.3 °F /  10.7 °C 34.7 °F /  1.5 °C 30.10in /  1019.2hPa Calm     53% 0.00in /  0mm
21:05 50.9 °F /  10.5 °C 34.4 °F /  1.3 °C 30.09in /  1018.8hPa Calm     53% 0.00in /  0mm
21:10 50.8 °F /  10.4 °C 35.7 °F /  2.1 °C 30.09in /  1018.8hPa Calm     56% 0.00in /  0mm
21:15 50.5 °F /  10.3 °C 35.4 °F /  1.9 °C 30.09in /  1018.8hPa Calm     56% 0.00in /  0mm
21:20 50.3 °F /  10.2 °C 35.2 °F /  1.8 °C 30.09in /  1018.8hPa Calm     56% 0.00in /  0mm
21:25 50.1 °F /  10.1 °C 35.0 °F /  1.7 °C 30.09in /  1018.8hPa Calm     56% 0.00in /  0mm
21:30 49.9 °F /  9.9 °C 34.8 °F /  1.6 °C 30.09in /  1018.8hPa Calm     56% 0.00in /  0mm
21:35 49.7 °F /  9.8 °C 34.2 °F /  1.2 °C 30.09in /  1018.8hPa Calm     55% 0.00in /  0mm
21:40 49.6 °F /  9.8 °C 35.4 °F /  1.9 °C 30.09in /  1018.8hPa Calm     58% 0.00in /  0mm
21:45 49.4 °F /  9.7 °C 35.2 °F /  1.8 °C 30.09in /  1018.8hPa Calm     58% 0.00in /  0mm
21:50 49.3 °F /  9.6 °C 34.7 °F /  1.5 °C 30.09in /  1018.8hPa Calm     57% 0.00in /  0mm
21:55 49.1 °F /  9.5 °C 34.9 °F /  1.6 °C 30.09in /  1018.8hPa Calm     58% 0.00in /  0mm
22:00 48.9 °F /  9.4 °C 34.8 °F /  1.6 °C 30.09in /  1018.8hPa Calm     58% 0.00in /  0mm
22:05 48.8 °F /  9.3 °C 35.1 °F /  1.7 °C 30.09in /  1018.8hPa Calm     59% 0.00in /  0mm
22:07 48.7 °F /  9.3 °C 35.4 °F /  1.9 °C 30.09in /  1018.8hPa Calm     60% 0.00in /  0mm
22:12 48.6 °F /  9.2 °C 35.7 °F /  2.1 °C 30.09in /  1018.8hPa Calm     61% 0.00in /  0mm
22:17 48.8 °F /  9.3 °C 35.9 °F /  2.2 °C 30.09in /  1018.8hPa Calm     61% 0.00in /  0mm
22:22 48.9 °F /  9.4 °C 36.0 °F /  2.2 °C 30.09in /  1018.8hPa Calm     61% 0.00in /  0mm
22:27 48.9 °F /  9.4 °C 36.0 °F /  2.2 °C 30.09in /  1018.8hPa Calm     61% 0.00in /  0mm
22:32 48.8 °F /  9.3 °C 35.9 °F /  2.2 °C 30.09in /  1018.8hPa Calm     61% 0.00in /  0mm
22:37 48.6 °F /  9.2 °C 35.7 °F /  2.1 °C 30.09in /  1018.8hPa Calm     61% 0.00in /  0mm
22:42 48.4 °F /  9.1 °C 36.4 °F /  2.4 °C 30.09in /  1018.8hPa Calm     63% 0.00in /  0mm
22:47 48.2 °F /  9 °C 36.2 °F /  2.3 °C 30.09in /  1018.8hPa Calm     63% 0.00in /  0mm
22:52 48.1 °F /  8.9 °C 36.1 °F /  2.3 °C 30.09in /  1018.8hPa Calm     63% 0.00in /  0mm
22:57 47.8 °F /  8.8 °C 35.8 °F /  2.1 °C 30.09in /  1018.8hPa Calm     63% 0.00in /  0mm
23:02 47.5 °F /  8.6 °C 35.9 °F /  2.2 °C 30.09in /  1018.8hPa Calm     64% 0.00in /  0mm
23:07 47.2 °F /  8.4 °C 36.0 °F /  2.2 °C 30.09in /  1018.8hPa Calm     65% 0.00in /  0mm
23:12 47.2 °F /  8.4 °C 36.0 °F /  2.2 °C 30.09in /  1018.8hPa Calm     65% 0.00in /  0mm
23:17 47.0 °F /  8.3 °C 36.2 °F /  2.3 °C 30.09in /  1018.8hPa Calm     66% 0.00in /  0mm
23:22 46.8 °F /  8.2 °C 35.6 °F /  2 °C 30.09in /  1018.8hPa Calm     65% 0.00in /  0mm
23:27 46.5 °F /  8.1 °C 35.7 °F /  2.1 °C 30.09in /  1018.8hPa Calm     66% 0.00in /  0mm
23:32 46.1 °F /  7.8 °C 35.4 °F /  1.9 °C 30.09in /  1018.8hPa Calm     66% 0.00in /  0mm
23:37 45.9 °F /  7.7 °C 35.6 °F /  2 °C 30.09in /  1018.8hPa Calm     67% 0.00in /  0mm
23:42 45.7 °F /  7.6 °C 36.1 °F /  2.3 °C 30.09in /  1018.8hPa Calm     69% 0.00in /  0mm
23:47 45.5 °F /  7.5 °C 35.9 °F /  2.2 °C 30.09in /  1018.8hPa Calm     69% 0.00in /  0mm
23:52 45.2 °F /  7.3 °C 35.6 °F /  2 °C 30.09in /  1018.8hPa Calm     69% 0.00in /  0mm
23:57 45.3 °F /  7.4 °C 36.4 °F /  2.4 °C 30.09in /  1018.8hPa Calm     71% 0.00in /  0mm
Compliments of Weather Underground